Time;durP1;ratioP1;P1;durP2;ratioP2;P2;SDS_P1;SDS_P2;PMS_P1;PMS_P2;Temp;Humidity;BMP_temperature;BMP_pressure;BME280_temperature;BME280_humidity;BME280_pressure;Samples;Min_cycle;Max_cycle;Signal;HPM_P1;HPM_P2
2022/11/05 00:16:42;;;;;;;21.13;10.77;;;9.70;99.90;;;;;;4937061;29;20199;-75
2022/11/05 00:16:57;;;;;;;23.70;10.73;;;9.60;99.90;;;;;;4936911;29;20285;-75
2022/11/05 00:19:24;;;;;;;19.07;10.70;;;9.60;99.90;;;;;;4937211;29;20640;-75
2022/11/05 00:27:22;;;;;;;23.83;10.33;;;9.70;99.90;;;;;;4936788;29;20199;-75
2022/11/05 00:29:49;;;;;;;20.03;10.20;;;9.70;99.90;;;;;;4936544;29;20260;-75
2022/11/05 00:32:16;;;;;;;20.20;10.50;;;9.70;99.90;;;;;;4936783;29;20306;-75
2022/11/05 00:34:43;;;;;;;23.33;10.93;;;9.70;99.90;;;;;;4920706;29;20321;-75
2022/11/05 00:37:10;;;;;;;22.33;11.03;;;9.70;99.90;;;;;;4953942;28;20775;-75
2022/11/05 00:39:37;;;;;;;20.00;10.87;;;9.60;99.90;;;;;;4977325;28;20189;-76
2022/11/05 00:45:02;;;;;;;20.77;11.00;;;9.70;99.90;;;;;;4959896;28;20627;-75
2022/11/05 00:50:19;;;;;;;20.53;10.63;;;9.70;99.90;;;;;;4959388;28;20564;-75
2022/11/05 00:52:59;;;;;;;21.90;10.73;;;9.80;99.90;;;;;;4959717;28;20202;-75
2022/11/05 00:55:40;;;;;;;23.13;10.77;;;9.80;99.90;;;;;;4975414;28;20232;-75
2022/11/05 00:58:11;;;;;;;21.97;11.13;;;9.80;99.90;;;;;;4975586;28;20669;-75
2022/11/05 01:00:41;;;;;;;22.60;11.67;;;9.70;99.90;;;;;;4959869;28;20201;-75
2022/11/05 01:03:11;;;;;;;23.60;10.73;;;9.60;99.90;;;;;;4959403;28;20206;-74
2022/11/05 01:05:42;;;;;;;19.87;10.70;;;9.70;99.90;;;;;;4975152;28;20213;-75
2022/11/05 01:08:10;;;;;;;21.30;11.17;;;9.60;99.90;;;;;;4976629;28;20204;-75
2022/11/05 01:10:42;;;;;;;22.83;10.70;;;9.70;99.90;;;;;;4959211;28;20194;-75
2022/11/05 01:13:10;;;;;;;20.90;10.90;;;9.70;99.90;;;;;;4975301;28;20189;-75
2022/11/05 01:15:39;;;;;;;19.73;11.30;;;9.70;99.90;;;;;;4974972;28;20678;-75
2022/11/05 01:18:06;;;;;;;26.37;11.20;;;9.70;99.90;;;;;;4959156;28;20288;-75
2022/11/05 01:20:33;;;;;;;18.77;10.83;;;9.70;99.90;;;;;;4974899;28;20200;-75
2022/11/05 01:23:00;;;;;;;20.40;10.67;;;9.70;99.90;;;;;;4959000;28;20200;-75
2022/11/05 01:25:27;;;;;;;20.77;11.00;;;9.60;99.90;;;;;;4975047;28;20222;-75
2022/11/05 01:27:54;;;;;;;23.53;11.33;;;9.60;99.90;;;;;;4974996;28;20201;-75
2022/11/05 01:30:22;;;;;;;21.97;10.83;;;9.50;99.90;;;;;;4958900;28;20248;-75
2022/11/05 01:32:49;;;;;;;22.70;11.27;;;9.50;99.90;;;;;;4958875;28;20193;-75
2022/11/05 01:35:17;;;;;;;25.97;11.83;;;9.50;99.90;;;;;;4976004;28;20225;-75
2022/11/05 01:37:44;;;;;;;22.17;11.23;;;9.50;99.90;;;;;;4974941;28;20198;-75
2022/11/05 01:40:15;;;;;;;21.10;11.00;;;9.50;99.90;;;;;;4975222;28;20201;-75
2022/11/05 01:42:42;;;;;;;20.70;10.87;;;9.50;99.90;;;;;;4958640;28;20296;-75
2022/11/05 01:45:20;;;;;;;21.40;11.17;;;9.40;99.90;;;;;;4974914;28;20212;-75
2022/11/05 01:47:59;;;;;;;25.07;11.10;;;9.40;99.90;;;;;;4974297;28;20239;-75
2022/11/05 01:50:38;;;;;;;22.43;10.53;;;9.50;99.90;;;;;;4958496;28;20555;-75
2022/11/05 01:53:17;;;;;;;21.93;11.43;;;9.50;99.90;;;;;;4974459;28;20220;-75
2022/11/05 01:55:50;;;;;;;21.83;10.67;;;9.50;99.90;;;;;;4958408;28;20224;-76
2022/11/05 01:58:21;;;;;;;24.80;11.30;;;9.50;99.90;;;;;;4957841;28;20252;-75
2022/11/05 02:00:49;;;;;;;19.87;10.97;;;9.40;99.90;;;;;;4974492;28;20240;-75
2022/11/05 02:03:17;;;;;;;22.90;11.10;;;9.40;99.90;;;;;;4975669;28;20213;-75
2022/11/05 02:05:46;;;;;;;20.87;11.40;;;9.50;99.90;;;;;;4958506;28;20292;-75
2022/11/05 02:08:51;;;;;;;20.93;10.80;;;9.40;99.90;;;;;;4974126;28;20223;-75
2022/11/05 02:11:19;;;;;;;21.60;10.97;;;9.40;99.90;;;;;;4958159;28;20208;-75
2022/11/05 02:13:47;;;;;;;23.23;11.30;;;9.40;99.90;;;;;;4975677;28;20230;-75
2022/11/05 02:16:51;;;;;;;20.67;11.13;;;9.40;99.90;;;;;;4975465;28;20208;-75
2022/11/05 02:19:59;;;;;;;20.90;11.13;;;9.40;99.90;;;;;;4975495;28;20541;-75
2022/11/05 02:22:54;;;;;;;21.83;11.50;;;9.40;99.90;;;;;;4975134;28;20197;-75
2022/11/05 02:25:59;;;;;;;24.33;11.40;;;9.40;99.90;;;;;;4957788;28;20256;-75
2022/11/05 02:28:47;;;;;;;22.60;11.37;;;9.40;99.90;;;;;;4975189;28;20190;-75
2022/11/05 02:31:16;;;;;;;22.17;11.17;;;9.30;99.90;;;;;;4974021;28;20217;-75
2022/11/05 02:34:09;;;;;;;22.37;11.70;;;9.30;99.90;;;;;;4973878;28;20280;-76
2022/11/05 02:36:49;;;;;;;25.67;11.43;;;9.30;99.90;;;;;;4973585;28;20237;-75
2022/11/05 02:39:18;;;;;;;22.47;11.83;;;9.30;99.90;;;;;;4974987;28;20213;-76
2022/11/05 02:41:54;;;;;;;22.63;11.87;;;9.30;99.90;;;;;;4974938;28;20256;-75
2022/11/05 02:44:32;;;;;;;23.40;11.90;;;9.20;99.90;;;;;;4957397;28;20204;-75
2022/11/05 02:47:18;;;;;;;20.10;11.03;;;9.30;99.90;;;;;;4973677;28;20194;-75
2022/11/05 02:50:13;;;;;;;24.43;11.57;;;9.20;99.90;;;;;;4957499;28;20228;-75
2022/11/05 02:52:46;;;;;;;19.67;10.73;;;9.20;99.90;;;;;;4973409;28;20205;-76
2022/11/05 02:55:38;;;;;;;26.47;11.47;;;9.30;99.90;;;;;;4957082;28;20224;-76
2022/11/05 02:58:08;;;;;;;21.60;10.90;;;9.20;99.90;;;;;;4957342;28;20220;-75
2022/11/05 03:00:53;;;;;;;21.87;11.70;;;9.10;99.90;;;;;;4974667;28;20201;-75
2022/11/05 03:03:40;;;;;;;20.23;11.20;;;9.10;99.90;;;;;;4957602;28;20255;-75
2022/11/05 03:06:10;;;;;;;23.23;11.53;;;9.10;99.90;;;;;;4973180;28;20251;-76
2022/11/05 03:09:00;;;;;;;26.47;12.77;;;9.10;99.90;;;;;;4973209;28;20209;-75
2022/11/05 03:11:35;;;;;;;23.87;12.13;;;9.10;99.90;;;;;;4914682;29;20223;-75
2022/11/05 03:14:29;;;;;;;23.17;12.33;;;9.10;99.90;;;;;;4915122;29;20214;-75
2022/11/05 03:17:06;;;;;;;21.17;11.40;;;9.10;99.90;;;;;;4914716;29;20635;-75
2022/11/05 03:19:37;;;;;;;22.53;11.97;;;9.10;99.90;;;;;;4914980;29;20206;-75
2022/11/05 03:22:13;;;;;;;22.77;11.83;;;9.10;99.90;;;;;;4899054;29;20217;-75
2022/11/05 03:24:45;;;;;;;19.30;10.87;;;9.00;99.90;;;;;;4898987;29;20226;-75
2022/11/05 03:27:18;;;;;;;21.50;12.30;;;9.00;99.90;;;;;;4914826;29;20355;-75
2022/11/05 03:29:58;;;;;;;23.97;12.27;;;9.10;99.90;;;;;;4914711;29;20618;-75
2022/11/05 03:32:29;;;;;;;23.43;12.13;;;9.10;99.90;;;;;;4914818;29;20199;-75
2022/11/05 03:35:21;;;;;;;23.20;11.83;;;9.00;99.90;;;;;;4914696;29;20235;-75
2022/11/05 03:37:52;;;;;;;23.93;12.53;;;9.00;99.90;;;;;;4914609;29;20195;-75
2022/11/05 03:40:21;;;;;;;22.97;12.03;;;9.00;99.90;;;;;;4898945;29;20211;-75
2022/11/05 03:42:52;;;;;;;22.60;12.37;;;9.00;99.90;;;;;;4899025;29;20655;-75
2022/11/05 03:45:29;;;;;;;24.93;12.53;;;9.00;99.90;;;;;;4898819;29;20207;-75
2022/11/05 03:47:58;;;;;;;25.13;12.37;;;9.00;99.90;;;;;;4914145;28;20505;-75
2022/11/05 03:50:36;;;;;;;25.17;12.77;;;9.00;99.90;;;;;;4973874;28;20201;-75
2022/11/05 03:53:15;;;;;;;21.27;11.73;;;9.00;99.90;;;;;;4957004;28;20206;-75
2022/11/05 03:56:29;;;;;;;25.07;12.53;;;9.00;99.90;;;;;;4972946;28;20220;-75
2022/11/05 03:58:59;;;;;;;22.57;12.67;;;9.00;99.90;;;;;;4914782;29;20287;-75
2022/11/05 04:01:27;;;;;;;21.03;12.50;;;9.10;99.90;;;;;;4899012;29;20687;-75
2022/11/05 04:03:54;;;;;;;25.90;13.37;;;9.00;99.90;;;;;;4898908;29;20235;-75
2022/11/05 04:14:38;;;;;;;28.10;13.20;;;8.90;99.90;;;;;;4914144;29;20271;-75
2022/11/05 04:17:05;;;;;;;26.00;13.70;;;8.90;99.90;;;;;;4914189;29;20207;-75
2022/11/05 04:25:05;;;;;;;25.73;13.57;;;8.80;99.90;;;;;;4917653;29;20701;-76
2022/11/05 04:27:32;;;;;;;24.60;14.23;;;8.80;99.90;;;;;;4917629;29;20223;-75
2022/11/05 04:30:17;;;;;;;26.13;13.77;;;8.70;99.90;;;;;;4901938;29;20297;-75
2022/11/05 04:33:00;;;;;;;27.30;13.73;;;8.70;99.90;;;;;;4902212;29;20315;-75
2022/11/05 04:35:38;;;;;;;26.50;14.20;;;8.70;99.90;;;;;;4947540;28;20221;-75
2022/11/05 04:38:08;;;;;;;26.77;13.93;;;8.60;99.90;;;;;;4976077;28;20197;-75
2022/11/05 04:40:36;;;;;;;25.70;14.00;;;8.60;99.90;;;;;;4975773;28;20197;-75
2022/11/05 04:43:03;;;;;;;28.07;14.27;;;8.60;99.90;;;;;;4977189;28;20199;-75
2022/11/05 04:45:35;;;;;;;27.13;14.43;;;8.60;99.90;;;;;;4959653;28;20194;-75
2022/11/05 04:48:03;;;;;;;27.90;14.67;;;8.60;99.90;;;;;;4975674;28;20244;-75
2022/11/05 04:50:31;;;;;;;26.20;14.43;;;8.50;99.90;;;;;;4959673;28;20639;-75
2022/11/05 04:52:58;;;;;;;27.90;15.10;;;8.40;99.90;;;;;;4977286;28;20272;-75
2022/11/05 04:55:26;;;;;;;25.67;14.13;;;8.40;99.90;;;;;;4975477;28;20247;-75
2022/11/05 04:57:53;;;;;;;30.13;15.10;;;8.40;99.90;;;;;;4959554;28;20202;-75
2022/11/05 05:00:22;;;;;;;27.67;14.80;;;8.40;99.90;;;;;;4975864;28;20296;-75
2022/11/05 05:02:49;;;;;;;29.03;15.37;;;8.50;99.90;;;;;;4959630;28;20190;-75
2022/11/05 05:05:16;;;;;;;27.30;15.03;;;8.50;99.90;;;;;;4976688;28;20221;-75
2022/11/05 05:07:43;;;;;;;28.40;15.27;;;8.40;99.90;;;;;;4976585;28;20268;-76
2022/11/05 05:10:11;;;;;;;28.60;15.20;;;8.40;99.90;;;;;;4959362;28;20223;-75
2022/11/05 05:12:37;;;;;;;29.57;15.13;;;8.40;99.90;;;;;;4976674;28;20550;-76
2022/11/05 05:15:05;;;;;;;31.27;15.30;;;8.30;99.90;;;;;;4975247;28;20217;-76
2022/11/05 05:17:32;;;;;;;30.67;15.67;;;8.30;99.90;;;;;;4959001;28;20205;-75
2022/11/05 05:22:53;;;;;;;25.97;15.53;;;8.30;99.90;;;;;;4959047;28;20268;-75
2022/11/05 05:25:21;;;;;;;30.30;15.77;;;8.30;99.90;;;;;;4975157;28;20199;-76
2022/11/05 05:27:48;;;;;;;30.83;16.40;;;8.30;99.90;;;;;;4976202;28;20243;-75
2022/11/05 05:30:15;;;;;;;33.33;17.07;;;8.30;99.90;;;;;;4975231;28;20640;-75
2022/11/05 05:32:42;;;;;;;28.50;16.67;;;8.30;99.90;;;;;;4974136;28;20609;-75
2022/11/05 05:35:09;;;;;;;32.73;17.43;;;8.30;99.90;;;;;;4975939;28;20224;-76
2022/11/05 05:37:36;;;;;;;31.30;17.17;;;8.20;99.90;;;;;;4976170;28;20252;-75
2022/11/05 05:40:03;;;;;;;31.13;17.93;;;8.20;99.90;;;;;;4958741;28;20200;-76
2022/11/05 05:42:30;;;;;;;32.97;18.63;;;8.30;99.90;;;;;;4942912;28;20202;-75
2022/11/05 05:44:57;;;;;;;31.37;17.53;;;8.20;99.90;;;;;;4975867;28;20707;-75
2022/11/05 05:47:24;;;;;;;33.63;18.53;;;8.20;99.90;;;;;;4958354;28;20216;-74
2022/11/05 05:49:51;;;;;;;36.17;19.33;;;8.10;99.90;;;;;;4958751;28;20193;-75
2022/11/05 05:52:18;;;;;;;38.50;19.43;;;8.10;99.90;;;;;;4958625;28;20647;-75
2022/11/05 05:54:45;;;;;;;34.43;19.60;;;8.00;99.90;;;;;;4958144;28;20197;-75
2022/11/05 05:57:12;;;;;;;37.30;20.00;;;8.00;99.90;;;;;;4974502;28;20299;-75
2022/11/05 05:59:38;;;;;;;35.10;19.40;;;8.00;99.90;;;;;;4974555;28;20208;-75
2022/11/05 06:02:05;;;;;;;36.83;20.03;;;8.00;99.90;;;;;;4975724;28;20193;-75
2022/11/05 06:04:32;;;;;;;35.53;20.10;;;8.00;99.90;;;;;;4958298;28;20605;-75
2022/11/05 06:07:00;;;;;;;32.37;18.67;;;8.00;99.90;;;;;;4958215;28;20235;-75
2022/11/05 06:09:27;;;;;;;37.10;19.57;;;8.00;99.90;;;;;;4942478;28;20208;-75
2022/11/05 06:11:54;;;;;;;38.37;20.57;;;8.10;99.90;;;;;;4958161;28;20201;-75
2022/11/05 06:14:21;;;;;;;37.47;18.73;;;8.10;99.90;;;;;;4958216;28;20201;-75
2022/11/05 06:16:48;;;;;;;35.27;18.30;;;8.10;99.90;;;;;;4974060;28;20340;-75
2022/11/05 06:19:15;;;;;;;40.73;18.73;;;8.10;99.90;;;;;;4958081;28;20309;-75
2022/11/05 06:21:42;;;;;;;36.40;18.27;;;8.10;99.90;;;;;;4957850;28;20224;-74
2022/11/05 06:24:09;;;;;;;34.60;18.17;;;8.10;99.90;;;;;;4975168;28;20198;-75
2022/11/05 06:26:41;;;;;;;34.70;17.80;;;8.10;99.90;;;;;;4973915;28;20231;-75
2022/11/05 06:29:09;;;;;;;40.03;17.50;;;8.10;99.90;;;;;;4973874;28;20233;-75
2022/11/05 06:31:36;;;;;;;33.20;17.80;;;8.20;99.90;;;;;;4975120;28;20197;-75
2022/11/05 06:34:03;;;;;;;38.27;17.50;;;8.20;99.90;;;;;;4973692;28;20631;-75
2022/11/05 06:36:30;;;;;;;41.63;18.47;;;8.20;99.90;;;;;;4957525;28;20224;-74
2022/11/05 06:38:57;;;;;;;35.60;17.60;;;8.10;99.90;;;;;;4973900;28;20292;-75
2022/11/05 06:41:24;;;;;;;30.60;17.17;;;8.10;99.90;;;;;;4973989;28;20205;-75
2022/11/05 06:43:51;;;;;;;36.10;17.43;;;8.10;99.90;;;;;;4973493;28;20197;-75
2022/11/05 06:46:18;;;;;;;34.50;17.23;;;8.20;99.90;;;;;;4974661;28;20212;-75
2022/11/05 06:48:46;;;;;;;32.90;16.63;;;8.20;99.90;;;;;;4974768;28;20225;-75
2022/11/05 06:51:13;;;;;;;33.93;17.23;;;8.20;99.90;;;;;;4957599;28;20201;-75
2022/11/05 06:53:40;;;;;;;37.37;17.67;;;8.30;99.90;;;;;;4973540;28;20221;-74
2022/11/05 06:56:07;;;;;;;34.23;17.20;;;8.30;99.90;;;;;;4973217;28;20229;-74
2022/11/05 06:58:34;;;;;;;35.27;17.37;;;8.30;99.90;;;;;;4957500;28;20194;-75
2022/11/05 07:01:07;;;;;;;35.70;16.93;;;8.30;99.90;;;;;;4973655;28;20233;-75
2022/11/05 07:03:36;;;;;;;40.13;17.67;;;8.40;99.90;;;;;;4974697;28;20277;-76
2022/11/05 07:06:04;;;;;;;33.03;16.87;;;8.40;99.90;;;;;;4973424;28;20197;-77
2022/11/05 07:08:33;;;;;;;32.10;16.93;;;8.40;99.90;;;;;;4973452;28;20198;-75
2022/11/05 07:11:00;;;;;;;34.27;17.87;;;8.40;99.90;;;;;;4957161;28;20214;-73
2022/11/05 07:13:27;;;;;;;28.97;15.97;;;8.40;99.90;;;;;;4957073;28;20294;-75
2022/11/05 07:15:54;;;;;;;38.97;17.50;;;8.40;99.90;;;;;;4973108;28;20244;-75
2022/11/05 07:18:22;;;;;;;28.77;17.33;;;8.40;99.90;;;;;;4957216;28;20208;-74
2022/11/05 07:20:49;;;;;;;32.93;16.90;;;8.40;99.90;;;;;;4973434;28;20228;-73
2022/11/05 07:23:16;;;;;;;32.53;16.93;;;8.40;99.90;;;;;;4974522;28;20613;-74
2022/11/05 07:25:43;;;;;;;30.67;17.00;;;8.50;99.90;;;;;;4972864;28;20236;-74
2022/11/05 07:28:10;;;;;;;32.83;17.10;;;8.50;99.90;;;;;;4957028;28;20227;-73
2022/11/05 07:30:37;;;;;;;30.40;16.97;;;8.40;99.90;;;;;;4973103;28;20221;-73
2022/11/05 07:33:04;;;;;;;34.10;17.77;;;8.40;99.90;;;;;;4973236;28;20211;-74
2022/11/05 07:35:31;;;;;;;34.10;17.60;;;8.40;99.90;;;;;;4972773;28;20292;-74
2022/11/05 07:37:58;;;;;;;31.00;17.23;;;8.40;99.90;;;;;;4957063;28;20210;-73
2022/11/05 07:40:27;;;;;;;32.23;16.90;;;8.40;99.90;;;;;;4972783;28;20205;-73
2022/11/05 07:42:57;;;;;;;32.07;17.17;;;8.40;99.90;;;;;;4956850;28;20197;-74
2022/11/05 07:45:25;;;;;;;33.33;17.50;;;8.40;99.90;;;;;;4973010;28;20221;-74
2022/11/05 07:47:54;;;;;;;35.43;16.73;;;8.40;99.90;;;;;;4972503;28;20240;-75
2022/11/05 07:50:23;;;;;;;37.03;17.23;;;8.40;99.90;;;;;;4973173;28;20201;-74
2022/11/05 07:52:51;;;;;;;34.00;18.10;;;8.40;99.90;;;;;;4972891;28;20191;-73
2022/11/05 07:55:19;;;;;;;35.73;17.27;;;8.40;99.90;;;;;;4972522;28;20678;-74
2022/11/05 07:57:48;;;;;;;40.57;18.73;;;8.40;99.90;;;;;;4977666;28;20637;-74
2022/11/05 08:00:18;;;;;;;35.13;17.20;;;8.40;99.90;;;;;;4960566;28;20626;-73
2022/11/05 08:03:16;;;;;;;35.90;17.97;;;8.40;99.90;;;;;;4978073;28;20192;-74
2022/11/05 08:05:45;;;;;;;32.87;17.27;;;8.40;99.90;;;;;;4902288;29;20568;-74
2022/11/05 08:08:17;;;;;;;41.60;18.67;;;8.50;99.90;;;;;;4902412;29;20654;-74
2022/11/05 08:10:44;;;;;;;32.17;17.40;;;8.50;99.90;;;;;;4902330;29;20599;-73
2022/11/05 08:13:12;;;;;;;36.17;18.37;;;8.50;99.90;;;;;;4917972;29;20671;-74
2022/11/05 08:15:41;;;;;;;34.30;17.53;;;8.60;99.90;;;;;;4917636;29;20236;-74
2022/11/05 08:18:16;;;;;;;35.43;17.50;;;8.60;99.90;;;;;;4917952;29;20597;-75
2022/11/05 08:20:44;;;;;;;32.33;17.73;;;8.60;99.90;;;;;;4902263;29;20694;-73
2022/11/05 08:23:11;;;;;;;32.47;17.37;;;8.60;99.90;;;;;;4917834;29;20238;-73
2022/11/05 08:25:39;;;;;;;36.10;17.03;;;8.60;99.90;;;;;;4917290;29;20297;-75
2022/11/05 08:28:09;;;;;;;39.83;18.20;;;8.70;99.90;;;;;;4917583;29;20318;-74
2022/11/05 08:30:36;;;;;;;35.00;17.90;;;8.80;99.90;;;;;;4917865;29;20201;-74
2022/11/05 08:33:05;;;;;;;32.87;17.33;;;8.80;99.90;;;;;;4917815;29;20195;-74
2022/11/05 08:35:34;;;;;;;32.53;16.87;;;8.80;99.90;;;;;;4917260;29;20222;-75
2022/11/05 08:38:03;;;;;;;32.10;17.00;;;8.80;99.90;;;;;;4901871;29;20602;-75
2022/11/05 08:40:32;;;;;;;36.03;16.93;;;8.80;99.90;;;;;;4901337;29;20301;-74
2022/11/05 08:43:04;;;;;;;39.00;17.93;;;8.90;99.90;;;;;;4951093;28;20554;-74
2022/11/05 08:45:31;;;;;;;30.53;17.23;;;9.00;99.90;;;;;;4977033;28;20488;-74
2022/11/05 08:48:02;;;;;;;38.37;17.33;;;9.00;99.90;;;;;;4975359;28;20327;-74
2022/11/05 08:50:31;;;;;;;35.00;17.17;;;9.00;99.90;;;;;;4975805;28;20673;-75
2022/11/05 08:52:58;;;;;;;32.67;17.73;;;8.90;99.90;;;;;;4975476;28;20220;-74
2022/11/05 08:55:25;;;;;;;31.03;17.17;;;9.00;99.90;;;;;;4958975;28;20193;-74
2022/11/05 08:57:57;;;;;;;37.27;18.57;;;9.00;99.90;;;;;;4959103;28;20231;-74
2022/11/05 09:00:25;;;;;;;31.20;17.57;;;9.00;99.90;;;;;;4976086;28;20193;-74
2022/11/05 09:02:52;;;;;;;35.03;17.93;;;9.10;99.90;;;;;;4958912;28;20205;-74
2022/11/05 09:05:19;;;;;;;33.90;17.80;;;9.00;99.90;;;;;;4975301;28;20219;-74
2022/11/05 09:07:46;;;;;;;35.80;18.50;;;9.10;99.90;;;;;;4957701;28;20221;-75
2022/11/05 09:10:13;;;;;;;37.00;18.30;;;9.10;99.90;;;;;;4975279;28;20189;-74
2022/11/05 09:12:40;;;;;;;34.13;18.50;;;9.10;99.90;;;;;;4958797;28;20651;-74
2022/11/05 09:15:08;;;;;;;35.87;18.13;;;9.20;99.90;;;;;;4976486;28;20264;-74
2022/11/05 09:17:35;;;;;;;37.07;19.03;;;9.20;99.90;;;;;;4974764;28;20288;-74
2022/11/05 09:20:03;;;;;;;34.97;18.50;;;9.30;99.90;;;;;;4958612;28;20201;-79
2022/11/05 09:22:31;;;;;;;37.20;18.23;;;9.40;99.90;;;;;;4974995;28;20209;-74
2022/11/05 09:24:57;;;;;;;35.37;18.67;;;9.50;99.90;;;;;;4976138;28;20690;-74
2022/11/05 09:27:25;;;;;;;40.37;18.17;;;9.50;99.90;;;;;;4974583;28;20221;-74
2022/11/05 09:29:52;;;;;;;35.77;18.70;;;9.60;99.90;;;;;;4974602;28;20209;-75
2022/11/05 09:32:22;;;;;;;34.87;18.83;;;9.60;99.90;;;;;;4974872;28;20414;-75
2022/11/05 09:34:49;;;;;;;34.50;19.53;;;9.60;99.90;;;;;;4974702;28;20292;-76
2022/11/05 09:37:16;;;;;;;36.27;18.83;;;9.60;99.90;;;;;;4975756;28;20702;-75
2022/11/05 09:39:43;;;;;;;33.20;17.27;;;9.60;99.90;;;;;;4974940;28;20217;-75
2022/11/05 09:42:15;;;;;;;33.50;18.67;;;9.60;99.90;;;;;;4974554;28;20622;-76
2022/11/05 09:45:01;;;;;;;33.93;18.47;;;9.60;99.90;;;;;;4975640;28;20197;-75
2022/11/05 09:47:45;;;;;;;35.83;18.67;;;9.60;99.90;;;;;;4958110;28;20201;-75
2022/11/05 09:50:24;;;;;;;34.20;18.37;;;9.60;99.90;;;;;;4974863;28;21083;-75
2022/11/05 09:52:51;;;;;;;33.53;17.57;;;9.60;99.90;;;;;;4974459;28;20559;-75
2022/11/05 09:55:47;;;;;;;37.80;19.57;;;9.60;99.90;;;;;;4975307;28;20207;-75
2022/11/05 09:58:38;;;;;;;40.33;20.50;;;9.60;99.90;;;;;;4956791;28;20565;-75
2022/11/05 10:01:10;;;;;;;36.90;19.03;;;9.60;99.90;;;;;;4974288;28;20648;-75
2022/11/05 10:03:44;;;;;;;36.60;19.07;;;9.70;99.90;;;;;;4958304;28;20571;-75
2022/11/05 10:06:19;;;;;;;31.33;18.33;;;9.80;99.90;;;;;;4974534;28;20894;-75
2022/11/05 10:08:51;;;;;;;35.57;18.97;;;9.90;99.90;;;;;;4975463;28;20223;-75
2022/11/05 10:11:41;;;;;;;39.80;19.13;;;9.90;99.90;;;;;;4974038;28;20319;-75
2022/11/05 10:14:20;;;;;;;38.77;18.97;;;10.00;99.90;;;;;;4974256;28;20198;-75
2022/11/05 10:17:13;;;;;;;36.83;19.67;;;9.90;99.90;;;;;;4957893;28;20682;-75
2022/11/05 10:19:48;;;;;;;37.77;20.03;;;9.90;99.90;;;;;;4954999;28;20198;-76
2022/11/05 10:22:17;;;;;;;46.20;22.03;;;9.80;99.90;;;;;;4975472;28;20225;-76
2022/11/05 10:24:46;;;;;;;36.73;19.97;;;10.00;99.90;;;;;;4973986;28;20193;-76
2022/11/05 10:27:22;;;;;;;35.83;19.57;;;10.00;99.90;;;;;;4973660;28;20232;-76
2022/11/05 10:29:49;;;;;;;37.67;20.47;;;10.00;99.90;;;;;;4973585;28;20208;-76
2022/11/05 10:32:43;;;;;;;47.10;20.93;;;9.90;99.90;;;;;;4974706;28;20266;-76
2022/11/05 10:35:21;;;;;;;42.53;21.10;;;9.90;99.90;;;;;;4954891;28;20203;-76
2022/11/05 10:37:50;;;;;;;38.43;20.90;;;10.00;99.90;;;;;;4957397;28;20287;-78
2022/11/05 10:40:53;;;;;;;38.00;19.90;;;10.10;99.90;;;;;;4974724;28;20253;-76
2022/11/05 10:43:43;;;;;;;38.70;20.77;;;10.20;99.90;;;;;;4974686;28;20561;-76
2022/11/05 10:46:48;;;;;;;44.60;21.23;;;10.20;99.90;;;;;;4914882;29;20292;-76
2022/11/05 10:49:24;;;;;;;40.77;20.57;;;10.20;99.90;;;;;;4914940;29;20247;-75
2022/11/05 10:51:58;;;;;;;40.50;21.43;;;10.20;99.90;;;;;;4913857;29;20195;-77
2022/11/05 10:54:33;;;;;;;38.73;20.23;;;10.20;99.90;;;;;;4896155;29;20504;-76
2022/11/05 10:57:34;;;;;;;38.60;20.20;;;10.20;99.90;;;;;;4880264;29;20637;-76
2022/11/05 11:00:23;;;;;;;37.33;18.90;;;10.30;99.90;;;;;;4896001;29;20208;-75
2022/11/05 11:02:57;;;;;;;40.83;20.63;;;10.20;99.90;;;;;;4880319;29;20208;-76
2022/11/05 11:05:36;;;;;;;40.77;20.67;;;10.20;99.90;;;;;;4880150;29;20227;-75
2022/11/05 11:08:23;;;;;;;38.57;19.93;;;10.20;99.90;;;;;;4895898;29;20199;-77
2022/11/05 11:10:54;;;;;;;37.90;20.00;;;10.20;99.90;;;;;;4895902;29;20335;-76
2022/11/05 11:13:26;;;;;;;38.40;21.70;;;10.30;99.90;;;;;;4895506;29;20213;-76
2022/11/05 11:16:12;;;;;;;42.33;21.90;;;10.30;99.90;;;;;;4895979;29;20247;-81
2022/11/05 11:18:42;;;;;;;35.10;20.57;;;10.20;99.90;;;;;;4895657;29;20656;-79
2022/11/05 11:21:15;;;;;;;39.40;20.47;;;10.20;99.90;;;;;;4880059;29;20212;-76
2022/11/05 11:23:52;;;;;;;41.57;21.47;;;10.20;99.90;;;;;;4925488;29;20280;-79
2022/11/05 11:26:20;;;;;;;37.67;20.73;;;10.20;99.90;;;;;;4953485;29;20178;-78
2022/11/05 11:28:56;;;;;;;41.20;21.23;;;10.20;99.90;;;;;;4953271;28;20565;-79
2022/11/05 11:31:25;;;;;;;39.47;21.57;;;10.20;99.90;;;;;;4936613;29;20210;-78
2022/11/05 11:34:02;;;;;;;41.70;21.70;;;10.20;99.90;;;;;;4937226;29;20206;-77
2022/11/05 11:36:42;;;;;;;42.43;21.60;;;10.20;99.90;;;;;;4953093;29;20205;-76
2022/11/05 11:39:18;;;;;;;40.67;22.17;;;10.20;99.90;;;;;;4937255;29;20236;-76
2022/11/05 11:41:50;;;;;;;48.00;22.60;;;10.10;99.90;;;;;;4952921;29;20194;-76
2022/11/05 11:44:25;;;;;;;41.17;21.53;;;10.10;99.90;;;;;;4937174;29;20191;-76
2022/11/05 11:46:57;;;;;;;43.07;22.50;;;10.10;99.90;;;;;;4936793;29;20699;-76
2022/11/05 11:49:45;;;;;;;42.00;22.57;;;9.90;99.90;;;;;;4952704;29;20230;-74
2022/11/05 11:52:14;;;;;;;39.97;22.03;;;9.90;99.90;;;;;;4953034;29;20198;-76
2022/11/05 11:54:42;;;;;;;41.93;22.60;;;9.80;99.90;;;;;;4952932;29;20202;-75
2022/11/05 11:57:28;;;;;;;46.57;23.33;;;9.90;99.90;;;;;;4953965;29;20614;-77
2022/11/05 11:59:57;;;;;;;46.30;23.23;;;10.10;99.90;;;;;;4950521;29;20253;-75
2022/11/05 12:03:00;;;;;;;45.13;22.77;;;10.00;99.90;;;;;;4952961;29;20205;-75
2022/11/05 12:05:47;;;;;;;44.57;23.33;;;9.90;99.90;;;;;;4954348;29;20202;-74
2022/11/05 12:08:29;;;;;;;47.30;23.20;;;9.90;99.90;;;;;;4953179;29;20201;-75
2022/11/05 12:11:27;;;;;;;43.77;23.20;;;9.90;99.90;;;;;;4954317;29;20202;-75
2022/11/05 12:14:01;;;;;;;48.23;23.23;;;9.90;99.90;;;;;;4936654;29;20233;-74
2022/11/05 12:16:36;;;;;;;42.17;23.90;;;10.00;99.90;;;;;;4936852;29;20202;-74
2022/11/05 12:19:31;;;;;;;48.17;25.40;;;10.00;99.90;;;;;;4952806;29;20675;-74
2022/11/05 12:22:04;;;;;;;44.83;24.30;;;9.90;99.90;;;;;;4953219;29;20692;-75
2022/11/05 12:24:33;;;;;;;45.27;24.17;;;9.90;99.90;;;;;;4952596;29;20217;-74
2022/11/05 12:27:35;;;;;;;47.27;24.87;;;10.00;99.90;;;;;;4949200;29;20254;-73
2022/11/05 12:30:15;;;;;;;45.00;24.07;;;10.00;99.90;;;;;;4932022;29;20207;-73
2022/11/05 12:33:12;;;;;;;50.33;25.20;;;10.00;99.90;;;;;;4932441;29;20214;-72
2022/11/05 12:36:07;;;;;;;47.33;24.17;;;9.90;99.90;;;;;;4916874;29;20253;-71
2022/11/05 12:38:57;;;;;;;47.70;24.83;;;9.90;99.90;;;;;;4932587;29;20274;-72
2022/11/05 12:41:31;;;;;;;45.33;24.27;;;9.90;99.90;;;;;;4916708;29;20210;-71
2022/11/05 12:44:19;;;;;;;51.30;26.23;;;10.00;99.90;;;;;;4919783;29;20207;-72
2022/11/05 12:47:02;;;;;;;47.17;26.00;;;9.90;99.90;;;;;;4936019;29;20290;-73
2022/11/05 12:49:32;;;;;;;48.17;25.43;;;9.90;99.90;;;;;;4935819;29;20322;-73
2022/11/05 12:52:13;;;;;;;48.90;25.97;;;9.90;99.90;;;;;;4919997;29;20213;-74
2022/11/05 12:54:48;;;;;;;51.33;26.03;;;9.90;99.90;;;;;;4935813;29;20191;-74
2022/11/05 12:57:16;;;;;;;48.50;26.20;;;9.90;99.90;;;;;;4935608;29;20226;-73
2022/11/05 13:00:05;;;;;;;50.63;26.83;;;9.80;99.90;;;;;;4935365;29;20211;-75
2022/11/05 13:02:50;;;;;;;50.03;27.50;;;9.90;99.90;;;;;;4935793;29;20201;-73
2022/11/05 13:05:32;;;;;;;50.93;27.87;;;9.80;99.90;;;;;;4926354;29;20202;-72
2022/11/05 13:08:43;;;;;;;53.60;28.07;;;9.60;99.90;;;;;;4955740;29;20245;-72
2022/11/05 13:11:22;;;;;;;55.20;28.23;;;9.50;99.90;;;;;;4930653;29;20269;-75
2022/11/05 13:14:30;;;;;;;54.73;29.07;;;9.50;99.90;;;;;;4955946;29;20301;-71
2022/11/05 13:17:11;;;;;;;55.33;29.53;;;9.50;99.90;;;;;;4900665;29;20346;-73
2022/11/05 13:19:41;;;;;;;59.27;29.77;;;9.40;99.90;;;;;;4900865;29;20208;-73
2022/11/05 13:22:35;;;;;;;52.80;29.37;;;9.50;99.90;;;;;;4916552;29;20211;-74
2022/11/05 13:25:18;;;;;;;60.23;29.60;;;9.50;99.90;;;;;;4900707;29;20203;-73
2022/11/05 13:28:07;;;;;;;55.33;28.77;;;9.50;99.90;;;;;;4916106;29;20314;-72
2022/11/05 13:30:40;;;;;;;54.43;29.57;;;9.50;99.90;;;;;;4916366;29;20279;-74
2022/11/05 13:33:28;;;;;;;54.63;28.80;;;9.40;99.90;;;;;;4916477;29;20273;-73
2022/11/05 13:38:59;;;;;;;56.63;29.20;;;9.40;99.90;;;;;;4916260;29;20553;-74
2022/11/05 13:41:38;;;;;;;53.70;28.73;;;9.40;99.90;;;;;;4900540;29;20211;-74
2022/11/05 13:44:24;;;;;;;53.77;28.83;;;9.40;99.90;;;;;;4900208;29;20215;-74
2022/11/05 13:47:03;;;;;;;52.27;28.70;;;9.30;99.90;;;;;;4900233;29;20704;-77
2022/11/05 13:49:52;;;;;;;54.77;28.40;;;9.30;99.90;;;;;;4915728;29;20760;-73
2022/11/05 13:52:43;;;;;;;56.77;29.67;;;9.30;99.90;;;;;;4901510;29;20206;-74
2022/11/05 13:55:29;;;;;;;56.07;29.70;;;9.30;99.90;;;;;;4954171;28;20202;-74